createdAt,value
2023-04-02T00:00:42.976Z,29.11
2023-04-02T00:01:43.046Z,30.11
2023-04-02T00:02:43.088Z,31.48
2023-04-02T00:03:43.241Z,29.06
2023-04-02T00:04:43.206Z,27.85
2023-04-02T00:05:43.215Z,30.94
2023-04-02T00:06:43.274Z,30.46
2023-04-02T00:07:43.385Z,31.10
2023-04-02T00:08:43.379Z,26.67
2023-04-02T00:09:43.461Z,31.58
2023-04-02T00:10:43.509Z,30.17
2023-04-02T00:11:43.533Z,28.56
2023-04-02T00:12:43.618Z,27.94
2023-04-02T00:13:43.712Z,26.89
2023-04-02T00:14:43.685Z,30.94
2023-04-02T00:15:43.742Z,30.86
2023-04-02T00:16:43.895Z,29.94
2023-04-02T00:17:43.811Z,31.07
2023-04-02T00:18:43.870Z,29.49
2023-04-02T00:19:43.930Z,29.68
2023-04-02T00:20:43.988Z,32.62
2023-04-02T00:21:44.045Z,29.19
2023-04-02T00:22:44.059Z,33.01
2023-04-02T00:23:44.166Z,30.76
2023-04-02T00:24:44.211Z,32.96
2023-04-02T00:25:44.272Z,31.98
2023-04-02T00:26:44.311Z,27.32
2023-04-02T00:27:44.387Z,32.75
2023-04-02T00:28:44.399Z,31.22
2023-04-02T00:29:44.450Z,25.00
2023-04-02T00:30:44.566Z,30.10
2023-04-02T00:31:44.579Z,31.91
2023-04-02T00:32:44.661Z,30.83
2023-04-02T00:33:44.694Z,28.80
2023-04-02T00:34:44.746Z,30.22
2023-04-02T00:35:44.824Z,32.10
2023-04-02T00:36:44.827Z,30.90
2023-04-02T00:37:44.921Z,30.41
2023-04-02T00:38:46.108Z,30.65
2023-04-02T00:39:45.034Z,29.27
2023-04-02T00:40:45.123Z,30.31
2023-04-02T00:41:45.099Z,31.05
2023-04-02T00:42:45.210Z,32.19
2023-04-02T00:43:45.280Z,30.19
2023-04-02T00:44:45.343Z,31.80
2023-04-02T00:45:45.438Z,34.31
2023-04-02T00:46:45.440Z,31.03
2023-04-02T00:47:45.535Z,31.05
2023-04-02T00:48:45.550Z,34.82
2023-04-02T00:49:45.624Z,29.91
2023-04-02T00:50:45.696Z,31.02
2023-04-02T00:51:45.736Z,32.80
2023-04-02T00:52:45.781Z,33.90
2023-04-02T00:53:45.907Z,33.72
2023-04-02T00:54:45.908Z,31.66
2023-04-02T00:55:46.017Z,29.75
2023-04-02T00:56:46.070Z,33.36
2023-04-02T00:57:46.133Z,32.70
2023-04-02T00:58:46.213Z,32.54
2023-04-02T00:59:46.204Z,32.58
2023-04-02T01:00:46.315Z,30.18
2023-04-02T01:01:46.431Z,33.51
2023-04-02T01:02:46.551Z,31.53
2023-04-02T01:03:46.648Z,32.24
2023-04-02T01:04:46.504Z,32.62
2023-04-02T01:05:46.612Z,28.86
2023-04-02T01:06:46.645Z,32.09
2023-04-02T01:07:46.706Z,31.13
2023-04-02T01:08:46.773Z,31.55
2023-04-02T01:09:46.886Z,29.29
2023-04-02T01:10:46.886Z,29.25
2023-04-02T01:11:46.964Z,32.01
2023-04-02T01:12:47.091Z,28.99
2023-04-02T01:13:47.052Z,28.21
2023-04-02T01:14:47.130Z,29.84
2023-04-02T01:15:47.253Z,29.78
2023-04-02T01:16:47.238Z,26.78
2023-04-02T01:17:47.324Z,27.30
2023-04-02T01:18:47.452Z,30.35
2023-04-02T01:19:47.466Z,28.61
2023-04-02T01:20:47.492Z,30.62
2023-04-02T01:21:47.579Z,29.10
2023-04-02T01:22:47.588Z,31.90
2023-04-02T01:23:47.708Z,29.12
2023-04-02T01:24:47.744Z,30.43
2023-04-02T01:25:47.823Z,31.20
2023-04-02T01:26:47.881Z,34.09
2023-04-02T01:27:47.931Z,29.50
2023-04-02T01:28:48.034Z,29.74
2023-04-02T01:29:48.012Z,29.13
2023-04-02T01:30:48.087Z,28.56
2023-04-02T01:31:48.236Z,30.72
2023-04-02T01:32:48.325Z,27.92
2023-04-02T01:33:48.312Z,31.46
2023-04-02T01:34:48.371Z,29.53
2023-04-02T01:35:48.420Z,27.83
2023-04-02T01:36:48.495Z,31.74
2023-04-02T01:37:48.501Z,31.35
2023-04-02T01:38:48.597Z,30.06
2023-04-02T01:39:48.662Z,29.51
2023-04-02T01:40:48.732Z,26.29
2023-04-02T01:41:48.749Z,30.78
2023-04-02T01:42:48.839Z,30.73
2023-04-02T01:43:48.922Z,31.52
2023-04-02T01:44:48.996Z,30.68
2023-04-02T01:45:49.077Z,32.82
2023-04-02T01:46:49.163Z,32.75
2023-04-02T01:47:49.232Z,28.60
2023-04-02T01:48:49.233Z,27.39
2023-04-02T01:49:49.313Z,29.56
2023-04-02T01:50:49.327Z,29.24
2023-04-02T01:51:49.435Z,32.81
2023-04-02T01:52:49.482Z,27.04
2023-04-02T01:53:49.554Z,31.55
2023-04-02T01:54:49.614Z,32.01
2023-04-02T01:55:49.665Z,27.62
2023-04-02T01:56:49.747Z,33.00
2023-04-02T01:57:49.774Z,32.05
2023-04-02T01:58:49.846Z,30.18
2023-04-02T01:59:49.883Z,25.00
2023-04-02T02:00:50.011Z,28.27
2023-04-02T02:01:50.064Z,30.86
2023-04-02T02:02:50.116Z,31.10
2023-04-02T02:03:50.110Z,28.29
2023-04-02T02:04:50.201Z,28.67
2023-04-02T02:05:50.270Z,29.41
2023-04-02T02:06:50.336Z,29.95
2023-04-02T02:07:50.375Z,27.31
2023-04-02T02:08:50.473Z,30.13
2023-04-02T02:09:50.503Z,31.86
2023-04-02T02:10:50.590Z,29.65
2023-04-02T02:11:50.662Z,30.76
2023-04-02T02:12:50.724Z,29.50
2023-04-02T02:13:50.814Z,29.18
2023-04-02T02:14:50.824Z,29.57
2023-04-02T02:15:50.853Z,30.53
2023-04-02T02:16:51.028Z,32.17
2023-04-02T02:17:51.042Z,28.35
2023-04-02T02:18:51.075Z,31.61
2023-04-02T02:19:51.112Z,31.85
2023-04-02T02:20:51.192Z,27.52
2023-04-02T02:21:51.235Z,31.79
2023-04-02T02:22:51.286Z,30.58
2023-04-02T02:23:51.338Z,31.08
2023-04-02T02:24:51.419Z,29.94
2023-04-02T02:25:51.438Z,31.80
2023-04-02T02:26:51.528Z,30.90
2023-04-02T02:27:51.597Z,31.22
2023-04-02T02:28:51.644Z,32.12
2023-04-02T02:29:51.701Z,31.95
2023-04-02T02:30:51.772Z,26.53
2023-04-02T02:31:51.865Z,32.40
2023-04-02T02:32:51.893Z,31.88
2023-04-02T02:33:51.928Z,31.25
2023-04-02T02:34:52.018Z,30.76
2023-04-02T02:35:52.739Z,31.15
2023-04-02T02:36:52.014Z,29.07
2023-04-02T02:37:52.065Z,29.30
2023-04-02T02:38:54.075Z,32.41
2023-04-02T02:39:52.253Z,31.74
2023-04-02T02:40:52.673Z,31.39
2023-04-02T02:41:52.188Z,30.48
2023-04-02T02:42:52.216Z,28.39
2023-04-02T02:43:52.270Z,29.86
2023-04-02T02:44:52.284Z,30.64
2023-04-02T02:45:52.359Z,30.62
2023-04-02T02:46:52.362Z,31.38
2023-04-02T02:47:52.438Z,32.67
2023-04-02T02:48:52.441Z,32.82
2023-04-02T02:49:52.441Z,32.16
2023-04-02T02:50:52.455Z,28.78
2023-04-02T02:51:52.514Z,30.77
2023-04-02T02:52:52.602Z,29.37
2023-04-02T02:53:52.548Z,29.01
2023-04-02T02:54:52.585Z,30.04
2023-04-02T02:55:52.561Z,31.79
2023-04-02T02:56:52.615Z,27.49
2023-04-02T02:57:52.673Z,33.03
2023-04-02T02:58:52.643Z,30.53
2023-04-02T02:59:52.734Z,31.08
2023-04-02T03:00:52.721Z,31.68
2023-04-02T03:01:52.791Z,29.71
2023-04-02T03:02:52.968Z,32.70
2023-04-02T03:03:52.945Z,31.70
2023-04-02T03:04:52.856Z,30.05
2023-04-02T03:05:52.862Z,28.16
2023-04-02T03:06:52.865Z,29.98
2023-04-02T03:07:52.916Z,27.74
2023-04-02T03:08:52.920Z,31.35
2023-04-02T03:09:52.957Z,29.52
2023-04-02T03:10:52.974Z,29.73
2023-04-02T03:11:52.989Z,30.30
2023-04-02T03:12:53.023Z,28.61
2023-04-02T03:13:52.985Z,27.71
2023-04-02T03:14:53.031Z,28.94
2023-04-02T03:15:53.052Z,28.92
2023-04-02T03:16:53.112Z,29.33
2023-04-02T03:17:53.241Z,26.52
2023-04-02T03:18:53.217Z,28.47
2023-04-02T03:19:53.193Z,27.02
2023-04-02T03:20:53.229Z,30.07
2023-04-02T03:21:53.288Z,29.29
2023-04-02T03:22:53.482Z,30.03
2023-04-02T03:23:53.294Z,28.56
2023-04-02T03:24:53.388Z,30.05
2023-04-02T03:25:53.373Z,29.07
2023-04-02T03:26:53.384Z,26.71
2023-04-02T03:27:53.528Z,29.80
2023-04-02T03:28:53.421Z,28.21
2023-04-02T03:29:53.513Z,28.60
2023-04-02T03:30:53.580Z,28.94
2023-04-02T03:31:53.595Z,28.78
2023-04-02T03:32:53.681Z,29.40
2023-04-02T03:33:53.668Z,28.48
2023-04-02T03:34:53.740Z,28.44
2023-04-02T03:35:53.698Z,28.95
2023-04-02T03:36:53.737Z,29.25
2023-04-02T03:37:53.748Z,31.38
2023-04-02T03:38:53.803Z,27.95
2023-04-02T03:39:53.874Z,28.85
2023-04-02T03:40:53.889Z,27.61
2023-04-02T03:41:53.889Z,28.26
2023-04-02T03:42:53.828Z,29.91
2023-04-02T03:43:53.840Z,28.00
2023-04-02T03:44:53.923Z,29.48
2023-04-02T03:45:53.908Z,30.07
2023-04-02T03:46:53.904Z,31.37
2023-04-02T03:47:53.921Z,27.99
2023-04-02T03:48:53.947Z,28.99
2023-04-02T03:49:53.949Z,28.64
2023-04-02T03:50:53.934Z,30.36
2023-04-02T03:51:53.951Z,31.00
2023-04-02T03:52:53.967Z,27.39
2023-04-02T03:53:53.975Z,28.88
2023-04-02T03:54:54.601Z,30.25
2023-04-02T03:55:53.912Z,25.25
2023-04-02T03:56:53.974Z,30.16
2023-04-02T03:57:53.922Z,28.03
2023-04-02T03:58:53.945Z,28.80
2023-04-02T03:59:53.959Z,31.44
2023-04-02T04:00:53.954Z,28.68
2023-04-02T04:01:54.034Z,29.89
2023-04-02T04:02:53.982Z,28.69
2023-04-02T04:03:54.004Z,30.47
2023-04-02T04:05:01.718Z,29.26
2023-04-02T04:05:53.979Z,29.64
2023-04-02T04:06:53.961Z,29.72
2023-04-02T04:07:53.961Z,29.83
2023-04-02T04:08:53.963Z,30.65
2023-04-02T04:09:53.974Z,29.40
2023-04-02T04:10:54.003Z,32.13
2023-04-02T04:11:53.965Z,31.32
2023-04-02T04:12:53.953Z,31.37
2023-04-02T04:13:53.966Z,31.22
2023-04-02T04:14:53.903Z,30.20
2023-04-02T04:15:53.920Z,30.38
2023-04-02T04:16:54.084Z,31.20
2023-04-02T04:17:54.063Z,31.76
2023-04-02T04:18:53.906Z,30.44
2023-04-02T04:19:53.885Z,29.25
2023-04-02T04:20:53.882Z,30.17
2023-04-02T04:21:53.921Z,29.71
2023-04-02T04:22:53.870Z,29.42
2023-04-02T04:23:53.872Z,28.47
2023-04-02T04:24:53.865Z,31.72
2023-04-02T04:25:53.843Z,29.74
2023-04-02T04:26:53.864Z,28.55
2023-04-02T04:27:53.840Z,27.97
2023-04-02T04:28:53.872Z,29.31
2023-04-02T04:29:53.903Z,27.67
2023-04-02T04:30:53.816Z,29.83
2023-04-02T04:31:53.778Z,30.08
2023-04-02T04:32:53.819Z,27.73
2023-04-02T04:33:53.771Z,28.80
2023-04-02T04:34:53.867Z,30.40
2023-04-02T04:35:53.810Z,28.31
2023-04-02T04:36:53.769Z,26.88
2023-04-02T04:37:53.776Z,28.25
2023-04-02T04:38:53.734Z,31.20
2023-04-02T04:39:53.746Z,26.50
2023-04-02T04:40:53.738Z,28.32
2023-04-02T04:41:53.728Z,26.02
2023-04-02T04:42:53.756Z,30.51
2023-04-02T04:43:53.752Z,28.21
2023-04-02T04:44:53.746Z,31.21
2023-04-02T04:45:53.760Z,27.94
2023-04-02T04:46:53.673Z,29.56
2023-04-02T04:47:53.727Z,27.62
2023-04-02T04:48:53.694Z,28.72
2023-04-02T04:49:53.672Z,27.88
2023-04-02T04:50:53.681Z,29.34
2023-04-02T04:51:53.690Z,28.65
2023-04-02T04:52:53.657Z,29.46
2023-04-02T04:53:53.687Z,29.59
2023-04-02T04:54:53.640Z,27.66
2023-04-02T04:55:53.674Z,27.94
2023-04-02T04:56:53.710Z,31.01
2023-04-02T04:57:53.660Z,30.69
2023-04-02T04:58:53.624Z,27.85
2023-04-02T04:59:53.646Z,28.06
2023-04-02T05:00:53.618Z,27.54
2023-04-02T05:01:53.720Z,27.97
2023-04-02T05:02:53.645Z,30.25
2023-04-02T05:03:53.590Z,29.17
2023-04-02T05:04:53.689Z,29.18
2023-04-02T05:05:53.656Z,28.14
2023-04-02T05:06:53.660Z,29.51
2023-04-02T05:07:53.662Z,25.00
2023-04-02T05:08:53.691Z,28.32
2023-04-02T05:09:53.696Z,31.14
2023-04-02T05:10:53.706Z,29.80
2023-04-02T05:11:53.684Z,30.56
2023-04-02T05:12:53.682Z,34.26
2023-04-02T05:13:53.729Z,34.68
2023-04-02T05:14:53.741Z,28.12
2023-04-02T05:15:53.747Z,29.33
2023-04-02T05:16:53.801Z,29.36
2023-04-02T05:17:53.871Z,30.58
2023-04-02T05:18:53.837Z,29.25
2023-04-02T05:19:53.840Z,28.79
2023-04-02T05:20:53.860Z,29.49
2023-04-02T05:21:53.837Z,29.69
2023-04-02T05:22:53.867Z,30.24
2023-04-02T05:23:53.861Z,30.36
2023-04-02T05:24:53.926Z,29.82
2023-04-02T05:25:53.910Z,27.98
2023-04-02T05:26:53.896Z,31.89
2023-04-02T05:27:53.851Z,31.16
2023-04-02T05:28:53.921Z,27.98
2023-04-02T05:29:53.866Z,31.42
2023-04-02T05:30:53.938Z,29.63
2023-04-02T05:31:53.882Z,28.92
2023-04-02T05:32:53.910Z,30.78
2023-04-02T05:33:53.919Z,30.01
2023-04-02T05:34:54.244Z,28.54
2023-04-02T05:35:53.908Z,26.22
2023-04-02T05:36:53.896Z,30.18
2023-04-02T05:37:53.993Z,31.73
2023-04-02T05:38:53.899Z,28.32
2023-04-02T05:39:53.981Z,29.89
2023-04-02T05:40:53.916Z,30.75
2023-04-02T05:41:53.935Z,29.35
2023-04-02T05:42:53.991Z,29.16
2023-04-02T05:43:54.101Z,29.02
2023-04-02T05:44:53.941Z,30.42
2023-04-02T05:45:53.965Z,29.91
2023-04-02T05:46:54.074Z,28.46
2023-04-02T05:47:54.037Z,26.49
2023-04-02T05:48:54.033Z,31.34
2023-04-02T05:49:54.015Z,27.24
2023-04-02T05:50:54.036Z,30.72
2023-04-02T05:51:55.841Z,28.39
2023-04-02T05:52:54.057Z,30.68
2023-04-02T05:53:54.068Z,33.34
2023-04-02T05:54:54.024Z,30.02
2023-04-02T05:55:54.011Z,30.74
2023-04-02T05:56:54.065Z,34.06
2023-04-02T05:58:13.350Z,29.29
2023-04-02T05:58:55.160Z,29.67
2023-04-02T05:59:53.993Z,30.04
2023-04-02T06:00:54.014Z,31.25
2023-04-02T06:01:54.119Z,31.27
2023-04-02T06:02:54.047Z,33.53
2023-04-02T06:03:54.041Z,35.96
2023-04-02T06:04:53.972Z,30.10
2023-04-02T06:05:53.938Z,33.19
2023-04-02T06:06:53.950Z,34.04
2023-04-02T06:07:53.956Z,31.57
2023-04-02T06:08:53.963Z,32.75
2023-04-02T06:09:53.973Z,31.66
2023-04-02T06:10:53.958Z,31.17
2023-04-02T06:11:53.997Z,28.45
2023-04-02T06:12:53.994Z,32.50
2023-04-02T06:13:54.037Z,33.22
2023-04-02T06:14:54.094Z,34.26
2023-04-02T06:15:54.096Z,35.03
2023-04-02T06:16:54.179Z,32.93
2023-04-02T06:17:54.210Z,31.74
2023-04-02T06:18:54.223Z,33.95
2023-04-02T06:19:54.282Z,32.83
2023-04-02T06:20:54.336Z,31.24
2023-04-02T06:21:54.403Z,31.50
2023-04-02T06:22:54.504Z,33.48
2023-04-02T06:23:54.508Z,33.36
2023-04-02T06:24:54.569Z,32.04
2023-04-02T06:25:54.940Z,32.75
2023-04-02T06:26:54.701Z,33.26
2023-04-02T06:27:54.748Z,31.06
2023-04-02T06:28:54.800Z,34.90
2023-04-02T06:29:54.874Z,32.73
2023-04-02T06:30:54.981Z,27.77
2023-04-02T06:31:54.976Z,30.73
2023-04-02T06:32:55.072Z,31.90
2023-04-02T06:33:55.125Z,35.15
2023-04-02T06:34:55.158Z,32.70
2023-04-02T06:35:55.317Z,34.69
2023-04-02T06:36:55.267Z,33.19
2023-04-02T06:37:55.380Z,33.93
2023-04-02T06:38:55.441Z,31.27
2023-04-02T06:39:55.502Z,34.81
2023-04-02T06:40:56.963Z,33.46
2023-04-02T06:41:55.613Z,33.83
2023-04-02T06:42:55.564Z,30.12
2023-04-02T06:43:55.580Z,33.87
2023-04-02T06:44:55.527Z,31.73
2023-04-02T06:45:55.499Z,32.84
2023-04-02T06:46:55.517Z,34.37
2023-04-02T06:47:55.571Z,32.34
2023-04-02T06:48:55.504Z,30.86
2023-04-02T06:49:56.089Z,26.23
2023-04-02T06:50:55.480Z,31.95
2023-04-02T06:51:55.528Z,27.90
2023-04-02T06:52:55.454Z,32.85
2023-04-02T06:53:55.438Z,29.00
2023-04-02T06:54:55.479Z,32.80
2023-04-02T06:55:55.457Z,33.63
2023-04-02T06:56:55.493Z,31.29
2023-04-02T06:57:55.409Z,29.96
2023-04-02T06:58:55.483Z,31.91
2023-04-02T06:59:55.531Z,31.15
2023-04-02T07:00:55.439Z,29.65
2023-04-02T07:01:55.576Z,35.45
2023-04-02T07:02:55.449Z,34.32
2023-04-02T07:03:55.401Z,29.69
2023-04-02T07:04:55.454Z,32.42
2023-04-02T07:05:55.356Z,31.98
2023-04-02T07:06:55.479Z,32.80
2023-04-02T07:07:55.380Z,32.77
2023-04-02T07:08:55.444Z,30.69
2023-04-02T07:09:55.340Z,32.94
2023-04-02T07:10:55.343Z,32.62
2023-04-02T07:11:55.347Z,32.24
2023-04-02T07:12:55.326Z,32.37
2023-04-02T07:13:55.318Z,31.66
2023-04-02T07:14:55.325Z,36.44
2023-04-02T07:15:55.370Z,30.35
2023-04-02T07:16:55.338Z,31.87
2023-04-02T07:17:55.329Z,30.64
2023-04-02T07:18:55.294Z,32.32
2023-04-02T07:19:55.372Z,31.86
2023-04-02T07:20:55.356Z,31.36
2023-04-02T07:21:55.430Z,32.81
2023-04-02T07:22:55.420Z,35.29
2023-04-02T07:23:55.449Z,33.22
2023-04-02T07:24:55.505Z,34.30
2023-04-02T07:25:55.500Z,32.08
2023-04-02T07:26:55.606Z,36.23
2023-04-02T07:27:55.608Z,30.87
2023-04-02T07:28:55.645Z,31.48
2023-04-02T07:29:55.679Z,31.05
2023-04-02T07:30:55.730Z,31.29
2023-04-02T07:31:55.854Z,29.69
2023-04-02T07:32:55.908Z,30.89
2023-04-02T07:33:55.865Z,33.33
2023-04-02T07:34:55.868Z,32.11
2023-04-02T07:35:55.961Z,32.68
2023-04-02T07:36:55.984Z,33.58
2023-04-02T07:37:56.042Z,32.69
2023-04-02T07:38:56.100Z,30.87
2023-04-02T07:39:56.110Z,32.35
2023-04-02T07:40:56.112Z,35.54
2023-04-02T07:41:56.155Z,32.52
2023-04-02T07:42:56.177Z,34.00
2023-04-02T07:43:56.258Z,33.65
2023-04-02T07:44:56.231Z,34.53
2023-04-02T07:45:56.288Z,36.78
2023-04-02T07:46:56.340Z,33.73
2023-04-02T07:47:56.391Z,34.88
2023-04-02T07:48:56.367Z,34.30
2023-04-02T07:49:56.427Z,34.71
2023-04-02T07:50:56.433Z,35.25
2023-04-02T07:51:56.542Z,35.43
2023-04-02T07:52:56.516Z,35.43
2023-04-02T07:53:56.558Z,38.32
2023-04-02T07:54:56.518Z,36.05
2023-04-02T07:55:56.567Z,37.24
2023-04-02T07:56:56.634Z,35.24
2023-04-02T07:57:56.635Z,33.54
2023-04-02T07:58:56.651Z,35.49
2023-04-02T07:59:56.642Z,37.18
2023-04-02T08:00:56.664Z,37.36
2023-04-02T08:01:56.672Z,35.80
2023-04-02T08:02:56.863Z,35.63
2023-04-02T08:03:56.776Z,36.36
2023-04-02T08:04:56.730Z,32.10
2023-04-02T08:05:56.738Z,36.49
2023-04-02T08:06:56.765Z,36.64
2023-04-02T08:07:56.936Z,36.63
2023-04-02T08:08:56.813Z,33.55
2023-04-02T08:09:56.824Z,36.83
2023-04-02T08:10:56.820Z,38.63
2023-04-02T08:11:56.842Z,37.83
2023-04-02T08:12:56.840Z,38.74
2023-04-02T08:13:56.893Z,36.62
2023-04-02T08:14:56.903Z,35.97
2023-04-02T08:15:56.916Z,36.23
2023-04-02T08:16:56.952Z,37.92
2023-04-02T08:17:56.943Z,36.18
2023-04-02T08:18:56.944Z,35.78
2023-04-02T08:19:56.938Z,36.22
2023-04-02T08:20:56.948Z,35.95
2023-04-02T08:21:56.950Z,37.55
2023-04-02T08:22:56.920Z,35.57
2023-04-02T08:23:56.964Z,35.40
2023-04-02T08:24:56.966Z,35.30
2023-04-02T08:25:56.940Z,35.43
2023-04-02T08:26:56.944Z,32.58
2023-04-02T08:27:56.960Z,30.88
2023-04-02T08:28:56.954Z,35.12
2023-04-02T08:29:56.960Z,34.88
2023-04-02T08:30:57.059Z,33.77
2023-04-02T08:31:56.929Z,34.82
2023-04-02T08:32:57.014Z,34.60
2023-04-02T08:33:56.949Z,29.81
2023-04-02T08:34:56.935Z,32.17
2023-04-02T08:35:57.015Z,34.64
2023-04-02T08:36:56.956Z,33.43
2023-04-02T08:37:56.929Z,33.71
2023-04-02T08:38:56.957Z,30.22
2023-04-02T08:39:56.917Z,31.09
2023-04-02T08:40:56.943Z,32.24
2023-04-02T08:41:56.978Z,31.74
2023-04-02T08:42:56.990Z,28.88
2023-04-02T08:43:57.049Z,25.75
2023-04-02T08:44:57.119Z,30.18
2023-04-02T08:45:57.145Z,33.59
2023-04-02T08:46:57.196Z,31.14
2023-04-02T08:47:57.403Z,28.62
2023-04-02T08:48:57.342Z,32.29
2023-04-02T08:49:57.414Z,28.79
2023-04-02T08:50:57.467Z,28.34
2023-04-02T08:51:57.500Z,30.85
2023-04-02T08:52:57.537Z,31.78
2023-04-02T08:53:57.649Z,28.32
2023-04-02T08:54:57.681Z,28.16
2023-04-02T08:55:57.749Z,27.66
2023-04-02T08:56:57.827Z,27.88
2023-04-02T08:57:57.867Z,28.40
2023-04-02T08:58:57.923Z,31.92
2023-04-02T08:59:57.981Z,27.47
2023-04-02T09:00:58.041Z,27.90
2023-04-02T09:01:58.140Z,28.04
2023-04-02T09:02:58.194Z,28.23
2023-04-02T09:03:58.234Z,27.94
2023-04-02T09:04:58.409Z,26.98
2023-04-02T09:05:58.326Z,30.05
2023-04-02T09:06:58.382Z,30.68
2023-04-02T09:07:58.445Z,28.86
2023-04-02T09:08:58.502Z,28.12
2023-04-02T09:09:58.473Z,29.12
2023-04-02T09:10:58.574Z,28.08
2023-04-02T09:11:58.587Z,25.21
2023-04-02T09:12:58.647Z,30.95
2023-04-02T09:13:58.710Z,29.37
2023-04-02T09:14:58.716Z,26.86
2023-04-02T09:15:58.766Z,28.08
2023-04-02T09:16:58.764Z,26.39
2023-04-02T09:17:59.650Z,29.12
2023-04-02T09:18:58.814Z,26.96
2023-04-02T09:19:58.851Z,26.08
2023-04-02T09:20:58.959Z,29.94
2023-04-02T09:21:58.923Z,25.00
2023-04-02T09:22:59.017Z,30.90
2023-04-02T09:23:58.959Z,28.85
2023-04-02T09:24:59.000Z,26.68
2023-04-02T09:26:04.577Z,29.78
2023-04-02T09:27:00.008Z,29.95
2023-04-02T09:27:59.058Z,30.25
2023-04-02T09:28:59.012Z,27.46
2023-04-02T09:29:59.013Z,27.74
2023-04-02T09:30:58.955Z,26.86
2023-04-02T09:31:59.068Z,29.08
2023-04-02T09:32:58.995Z,26.66
2023-04-02T09:33:58.984Z,28.64
2023-04-02T09:34:58.986Z,28.24
2023-04-02T09:35:58.984Z,25.82
2023-04-02T09:36:58.958Z,27.05
2023-04-02T09:37:58.939Z,28.19
2023-04-02T09:38:58.984Z,26.83
2023-04-02T09:39:58.937Z,25.38
2023-04-02T09:40:58.921Z,27.92
2023-04-02T09:42:05.462Z,25.43
2023-04-02T09:42:59.925Z,25.64
2023-04-02T09:43:58.908Z,26.09
2023-04-02T09:44:58.875Z,25.57
2023-04-02T09:45:58.903Z,24.79
2023-04-02T09:46:59.046Z,23.95
2023-04-02T09:47:58.897Z,28.07
2023-04-02T09:48:58.873Z,25.00
2023-04-02T09:49:58.879Z,26.55
2023-04-02T09:50:58.848Z,26.60
2023-04-02T09:51:58.882Z,26.62
2023-04-02T09:52:58.846Z,27.80
2023-04-02T09:53:58.880Z,25.54
2023-04-02T09:54:58.813Z,25.00
2023-04-02T09:55:58.808Z,25.84
2023-04-02T09:56:58.822Z,27.06
2023-04-02T09:58:00.912Z,27.63
2023-04-02T09:58:58.801Z,31.15
2023-04-02T09:59:58.810Z,27.13
2023-04-02T10:00:58.858Z,26.07
2023-04-02T10:01:58.770Z,26.23
2023-04-02T10:02:58.797Z,27.65
2023-04-02T10:03:58.785Z,25.45
2023-04-02T10:04:58.819Z,31.11
2023-04-02T10:05:58.772Z,30.76
2023-04-02T10:06:58.736Z,28.67
2023-04-02T10:07:58.770Z,28.70
2023-04-02T10:08:58.713Z,35.02
2023-04-02T10:09:58.746Z,32.58
2023-04-02T10:10:58.731Z,31.98
2023-04-02T10:11:58.733Z,29.37
2023-04-02T10:12:58.740Z,27.94
2023-04-02T10:13:58.728Z,28.57
2023-04-02T10:14:58.706Z,30.71
2023-04-02T10:15:58.710Z,26.43
2023-04-02T10:16:58.728Z,29.58
2023-04-02T10:17:58.706Z,28.81
2023-04-02T10:18:58.729Z,25.80
2023-04-02T10:19:58.643Z,27.72
2023-04-02T10:20:58.637Z,30.88
2023-04-02T10:21:58.661Z,28.68
2023-04-02T10:22:58.649Z,26.92
2023-04-02T10:23:58.643Z,26.14
2023-04-02T10:24:58.670Z,29.68
2023-04-02T10:25:58.618Z,26.41
2023-04-02T10:26:58.620Z,28.30
2023-04-02T10:27:58.602Z,25.21
2023-04-02T10:28:58.632Z,25.94
2023-04-02T10:29:58.642Z,27.31
2023-04-02T10:30:58.633Z,26.16
2023-04-02T10:31:58.601Z,26.76
2023-04-02T10:32:58.694Z,29.11
2023-04-02T10:33:58.738Z,25.00
2023-04-02T10:34:58.831Z,25.00
2023-04-02T10:35:59.988Z,27.71
2023-04-02T10:36:58.901Z,27.12
2023-04-02T10:37:59.006Z,26.43
2023-04-02T10:38:59.035Z,32.08
2023-04-02T10:39:59.061Z,31.35
2023-04-02T10:40:59.119Z,32.46
2023-04-02T10:41:59.197Z,35.15
2023-04-02T10:42:59.204Z,36.21
2023-04-02T10:44:03.627Z,39.11
2023-04-02T10:45:00.242Z,39.34
2023-04-02T10:45:59.297Z,39.57
2023-04-02T10:46:59.242Z,40.18
2023-04-02T10:47:59.256Z,38.70
2023-04-02T10:48:59.223Z,40.07
2023-04-02T10:49:59.292Z,42.19
2023-04-02T10:50:59.165Z,38.78
2023-04-02T10:51:59.192Z,41.33
2023-04-02T10:52:59.172Z,40.62
2023-04-02T10:53:59.186Z,36.08
2023-04-02T10:54:59.165Z,41.64
2023-04-02T10:55:59.234Z,39.27
2023-04-02T10:56:59.187Z,39.92
2023-04-02T10:57:59.179Z,40.77
2023-04-02T10:58:59.249Z,39.91
2023-04-02T10:59:59.252Z,47.21
2023-04-02T11:00:59.313Z,46.02
2023-04-02T11:01:59.410Z,45.35
2023-04-02T11:02:59.403Z,45.97
2023-04-02T11:03:59.439Z,42.54
2023-04-02T11:05:01.217Z,41.36
2023-04-02T11:05:59.391Z,41.56
2023-04-02T11:07:11.005Z,42.54
2023-04-02T11:08:00.379Z,42.78
2023-04-02T11:08:59.381Z,43.87
2023-04-02T11:09:59.392Z,46.01
2023-04-02T11:10:59.412Z,46.50
2023-04-02T11:11:59.390Z,44.85
2023-04-02T11:12:59.361Z,43.61
2023-04-02T11:13:59.361Z,43.71
2023-04-02T11:14:59.351Z,45.17
2023-04-02T11:15:59.405Z,45.47
2023-04-02T11:16:59.351Z,45.97
2023-04-02T11:17:59.385Z,48.64
2023-04-02T11:18:59.334Z,44.25
2023-04-02T11:19:59.331Z,47.62
2023-04-02T11:20:59.353Z,48.31
2023-04-02T11:22:01.316Z,51.20
2023-04-02T11:22:59.382Z,51.09
2023-04-02T11:23:59.357Z,54.94
2023-04-02T11:24:59.372Z,49.86
2023-04-02T11:25:59.332Z,50.01
2023-04-02T11:26:59.347Z,48.85
2023-04-02T11:27:59.299Z,50.19
2023-04-02T11:28:59.388Z,47.73
2023-04-02T11:29:59.304Z,48.54
2023-04-02T11:30:59.380Z,47.52
2023-04-02T11:31:59.322Z,46.52
2023-04-02T11:32:59.325Z,45.70
2023-04-02T11:33:59.344Z,46.48
2023-04-02T11:35:06.507Z,47.25
2023-04-02T11:36:00.280Z,47.44
2023-04-02T11:36:59.241Z,47.56
2023-04-02T11:37:59.260Z,43.11
2023-04-02T11:39:04.571Z,43.04
2023-04-02T11:40:00.312Z,47.42
2023-04-02T11:40:59.221Z,47.36
2023-04-02T11:41:59.239Z,42.89
2023-04-02T11:42:59.292Z,46.56
2023-04-02T11:43:59.208Z,45.69
2023-04-02T11:44:59.258Z,39.82
2023-04-02T11:45:59.238Z,40.59
2023-04-02T11:46:59.243Z,41.09
2023-04-02T11:47:59.222Z,41.66
2023-04-02T11:48:59.249Z,40.90
2023-04-02T11:49:59.306Z,38.50
2023-04-02T11:50:59.344Z,37.04
2023-04-02T11:52:09.319Z,38.67
2023-04-02T11:53:00.384Z,38.93
2023-04-02T11:53:59.367Z,39.25
2023-04-02T11:54:59.373Z,39.68
2023-04-02T11:55:59.333Z,40.98
2023-04-02T11:56:59.360Z,41.98
2023-04-02T11:57:59.306Z,40.93
2023-04-02T11:58:59.353Z,43.80
2023-04-02T11:59:59.292Z,44.29
2023-04-02T12:00:59.309Z,45.54
2023-04-02T12:01:59.310Z,46.11
2023-04-02T12:02:59.426Z,48.32
2023-04-02T12:03:59.427Z,47.07
2023-04-02T12:04:59.447Z,48.74
2023-04-02T12:06:00.027Z,48.25
2023-04-02T12:06:59.532Z,49.10
2023-04-02T12:07:59.614Z,48.83
2023-04-02T12:08:59.670Z,48.49
2023-04-02T12:09:59.675Z,50.25
2023-04-02T12:10:59.723Z,50.35
2023-04-02T12:11:59.760Z,51.51
2023-04-02T12:12:59.806Z,51.74
2023-04-02T12:13:59.899Z,53.24
2023-04-02T12:14:59.894Z,53.55
2023-04-02T12:15:59.940Z,53.11
2023-04-02T12:17:00.080Z,53.17
2023-04-02T12:18:00.186Z,55.04
2023-04-02T12:19:00.101Z,53.90
2023-04-02T12:20:00.191Z,58.03
2023-04-02T12:21:00.149Z,54.94
2023-04-02T12:22:00.211Z,56.75
2023-04-02T12:23:00.273Z,58.03
2023-04-02T12:24:00.359Z,60.87
2023-04-02T12:25:00.401Z,58.81
2023-04-02T12:26:00.391Z,59.10
2023-04-02T12:27:00.515Z,58.99
2023-04-02T12:28:00.509Z,60.06
2023-04-02T12:29:00.633Z,60.56
2023-04-02T12:30:00.632Z,61.10
2023-04-02T12:31:00.712Z,63.10
2023-04-02T12:32:00.811Z,61.62
2023-04-02T12:33:00.839Z,61.81
2023-04-02T12:34:00.864Z,60.71
2023-04-02T12:35:00.921Z,61.37
2023-04-02T12:36:01.006Z,61.10
2023-04-02T12:37:01.050Z,60.13
2023-04-02T12:38:01.083Z,62.39
2023-04-02T12:39:01.170Z,62.68
2023-04-02T12:40:01.228Z,62.32
2023-04-02T12:41:01.272Z,62.90
2023-04-02T12:42:01.329Z,62.30
2023-04-02T12:43:01.375Z,63.35
2023-04-02T12:44:01.456Z,63.95
2023-04-02T12:45:01.472Z,67.34
2023-04-02T12:46:01.586Z,66.55
2023-04-02T12:47:01.624Z,65.33
2023-04-02T12:48:01.775Z,64.14
2023-04-02T12:49:01.757Z,67.37
2023-04-02T12:50:01.870Z,66.99
2023-04-02T12:51:01.857Z,65.11
2023-04-02T12:52:01.908Z,67.63
2023-04-02T12:53:02.016Z,68.81